Time;durP1;ratioP1;P1;durP2;ratioP2;P2;SDS_P1;SDS_P2;PMS_P1;PMS_P2;Temp;Humidity;BMP_temperature;BMP_pressure;BME280_temperature;BME280_humidity;BME280_pressure;Samples;Min_cycle;Max_cycle;Signal;HPM_P1;HPM_P2
2022/07/30 00:01:45;;;;;;;2.72;1.73;;;13.00;99.90;;;;;;5038270;28;20083;-66
2022/07/30 00:04:12;;;;;;;2.95;1.85;;;12.90;99.90;;;;;;5035206;28;20125;-64
2022/07/30 00:06:39;;;;;;;3.15;1.63;;;12.90;99.90;;;;;;5030561;28;20137;-72
2022/07/30 00:09:06;;;;;;;2.20;1.50;;;12.90;99.90;;;;;;5043344;28;20099;-64
2022/07/30 00:11:33;;;;;;;1.65;1.23;;;12.90;99.90;;;;;;5050632;28;20041;-66
2022/07/30 00:14:01;;;;;;;4.00;2.10;;;12.80;99.90;;;;;;5043796;28;20483;-67
2022/07/30 00:16:27;;;;;;;1.45;1.35;;;12.80;99.90;;;;;;5044548;28;20128;-64
2022/07/30 00:18:54;;;;;;;4.00;1.85;;;12.80;99.90;;;;;;5042357;28;20058;-64
2022/07/30 00:21:22;;;;;;;2.15;1.95;;;12.80;99.90;;;;;;5046937;28;20037;-65
2022/07/30 00:24:05;;;;;;;3.35;1.92;;;12.80;99.90;;;;;;5040410;28;20033;-71
2022/07/30 00:26:32;;;;;;;3.75;1.75;;;12.70;99.90;;;;;;5047982;28;20093;-68
2022/07/30 00:28:59;;;;;;;4.18;2.13;;;12.70;99.90;;;;;;5044224;28;20100;-69
2022/07/30 00:31:27;;;;;;;4.55;1.80;;;12.70;99.90;;;;;;5044116;28;20169;-66
2022/07/30 00:33:54;;;;;;;2.75;1.65;;;12.70;99.90;;;;;;5045174;28;20045;-66
2022/07/30 00:36:21;;;;;;;3.75;1.80;;;12.70;99.90;;;;;;5045161;28;20497;-67
2022/07/30 00:38:48;;;;;;;4.28;1.90;;;12.70;99.90;;;;;;5024866;28;20399;-66
2022/07/30 00:41:16;;;;;;;1.35;1.15;;;12.70;99.90;;;;;;5044136;28;20118;-67
2022/07/30 00:43:43;;;;;;;2.90;1.70;;;12.70;99.90;;;;;;5047262;28;20151;-68
2022/07/30 00:46:10;;;;;;;2.30;1.95;;;12.70;99.90;;;;;;5046939;28;20049;-72
2022/07/30 00:48:37;;;;;;;4.20;1.67;;;12.70;99.90;;;;;;5052193;28;20090;-64
2022/07/30 00:51:04;;;;;;;2.80;1.83;;;12.70;99.90;;;;;;5046969;28;20072;-67
2022/07/30 00:53:32;;;;;;;2.28;2.08;;;12.70;99.90;;;;;;5051087;28;20037;-73
2022/07/30 00:56:00;;;;;;;2.00;1.85;;;12.70;99.90;;;;;;5047478;28;20132;-66
2022/07/30 00:58:27;;;;;;;3.55;2.13;;;12.70;99.90;;;;;;5038595;28;20451;-64
2022/07/30 01:00:54;;;;;;;2.38;1.40;;;12.60;99.90;;;;;;5046184;28;20129;-69
2022/07/30 01:03:21;;;;;;;2.95;1.30;;;12.60;99.90;;;;;;5024666;28;20468;-66
2022/07/30 01:05:48;;;;;;;2.00;1.48;;;12.60;99.90;;;;;;5027357;28;20079;-64
2022/07/30 01:08:16;;;;;;;2.08;1.23;;;12.60;99.90;;;;;;5047927;28;20502;-68
2022/07/30 01:10:43;;;;;;;2.95;1.60;;;12.60;99.90;;;;;;5035298;28;20041;-67
2022/07/30 01:13:11;;;;;;;2.28;1.92;;;12.60;99.90;;;;;;5040890;28;20235;-67
2022/07/30 01:15:38;;;;;;;2.70;1.77;;;12.60;99.90;;;;;;5035177;28;20068;-65
2022/07/30 01:18:08;;;;;;;2.28;1.80;;;12.60;99.90;;;;;;5016180;28;20079;-69
2022/07/30 01:20:41;;;;;;;2.10;1.60;;;12.60;99.90;;;;;;5020569;28;20041;-64
2022/07/30 01:23:26;;;;;;;3.03;1.45;;;12.60;99.90;;;;;;5041789;28;20091;-64
2022/07/30 01:26:04;;;;;;;1.15;1.05;;;12.50;99.90;;;;;;5029013;28;20045;-64
2022/07/30 01:28:44;;;;;;;6.45;2.05;;;12.50;99.90;;;;;;5036574;28;20063;-64
2022/07/30 01:31:12;;;;;;;1.48;1.38;;;12.50;99.90;;;;;;5039993;28;20070;-69
2022/07/30 01:33:46;;;;;;;2.65;1.83;;;12.50;99.90;;;;;;5028646;28;20045;-67
2022/07/30 01:36:16;;;;;;;2.60;2.20;;;12.50;99.90;;;;;;5029662;28;20123;-65
2022/07/30 01:38:45;;;;;;;;;;;12.50;99.90;;;;;;5025683;28;20037;-66
2022/07/30 01:41:14;;;;;;;6.78;2.03;;;12.50;99.90;;;;;;5025681;28;19921;-65
2022/07/30 01:43:43;;;;;;;5.15;2.70;;;12.50;99.90;;;;;;5027491;28;20045;-66
2022/07/30 01:46:12;;;;;;;5.47;3.65;;;12.50;99.90;;;;;;5026915;28;20053;-69
2022/07/30 01:48:42;;;;;;;2.50;2.15;;;12.50;99.90;;;;;;5026850;28;20152;-66
2022/07/30 01:51:12;;;;;;;4.63;2.27;;;12.50;99.90;;;;;;5025626;28;20048;-71
2022/07/30 01:53:44;;;;;;;3.00;2.67;;;12.50;99.90;;;;;;5027063;28;20059;-68
2022/07/30 01:56:14;;;;;;;2.05;1.90;;;12.50;99.90;;;;;;5020899;28;20050;-69
2022/07/30 01:58:45;;;;;;;2.75;1.90;;;12.50;99.90;;;;;;5026974;28;20052;-72
2022/07/30 02:01:20;;;;;;;2.35;2.20;;;12.40;99.90;;;;;;5017972;28;20040;-65
2022/07/30 02:03:47;;;;;;;2.65;1.70;;;12.40;99.90;;;;;;5030730;28;20044;-64
2022/07/30 02:06:25;;;;;;;2.53;2.33;;;12.40;99.90;;;;;;5025069;28;20049;-64
2022/07/30 02:08:55;;;;;;;1.85;1.70;;;12.40;99.90;;;;;;5027522;28;20402;-65
2022/07/30 02:14:23;;;;;;;2.45;2.15;;;12.40;99.90;;;;;;5017901;28;20049;-69
2022/07/30 02:16:55;;;;;;;2.17;1.70;;;12.40;99.90;;;;;;5027705;28;20102;-70
2022/07/30 02:19:27;;;;;;;2.00;1.90;;;12.40;99.90;;;;;;5034335;28;20051;-65
2022/07/30 02:22:07;;;;;;;2.20;1.50;;;12.40;99.90;;;;;;5026100;28;20055;-64
2022/07/30 02:24:37;;;;;;;2.20;1.95;;;12.30;99.90;;;;;;5016568;28;20037;-64
2022/07/30 02:27:15;;;;;;;2.13;1.95;;;12.30;99.90;;;;;;5029664;28;20428;-70
2022/07/30 02:29:44;;;;;;;3.92;1.60;;;12.30;99.90;;;;;;5040875;28;20048;-69
2022/07/30 02:32:16;;;;;;;2.10;2.00;;;12.30;99.90;;;;;;5017112;28;20041;-68
2022/07/30 02:34:49;;;;;;;3.05;2.17;;;12.30;99.90;;;;;;5022737;28;20063;-64
2022/07/30 02:37:21;;;;;;;2.95;1.70;;;12.30;99.90;;;;;;5018396;28;20052;-64
2022/07/30 02:40:13;;;;;;;1.67;1.58;;;12.30;99.90;;;;;;5020990;28;20037;-66
2022/07/30 02:42:42;;;;;;;1.30;1.20;;;12.30;99.90;;;;;;5026609;28;20144;-69
2022/07/30 02:45:12;;;;;;;4.40;1.88;;;12.30;99.90;;;;;;5016012;28;20041;-69
2022/07/30 02:47:41;;;;;;;6.05;2.42;;;12.30;99.90;;;;;;5038563;28;20044;-67
2022/07/30 02:50:09;;;;;;;3.55;3.20;;;12.30;99.90;;;;;;5018999;28;20057;-70
2022/07/30 02:52:40;;;;;;;2.05;1.85;;;12.30;99.90;;;;;;5038000;28;20042;-67
2022/07/30 02:55:10;;;;;;;1.60;1.50;;;12.30;99.90;;;;;;5045187;28;20584;-65
2022/07/30 02:57:40;;;;;;;;;;;12.30;99.90;;;;;;5020345;28;20033;-70
2022/07/30 03:00:11;;;;;;;2.20;1.67;;;12.30;99.90;;;;;;5016818;28;19994;-69
2022/07/30 03:02:39;;;;;;;2.92;2.10;;;12.30;99.90;;;;;;5025715;28;20045;-65
2022/07/30 03:05:10;;;;;;;2.08;1.60;;;12.30;99.90;;;;;;5042194;28;20138;-74
2022/07/30 03:07:38;;;;;;;4.10;1.85;;;12.30;99.90;;;;;;5024029;28;20094;-64
2022/07/30 03:10:06;;;;;;;1.52;1.42;;;12.40;99.90;;;;;;5025784;28;20067;-69
2022/07/30 03:12:34;;;;;;;2.58;2.38;;;12.40;99.90;;;;;;5024638;28;20041;-70
2022/07/30 03:15:02;;;;;;;3.92;2.10;;;12.40;99.90;;;;;;5034385;28;20077;-69
2022/07/30 03:17:35;;;;;;;3.53;2.20;;;12.50;99.90;;;;;;5020774;28;20065;-72
2022/07/30 03:20:04;;;;;;;3.13;2.08;;;12.50;99.90;;;;;;5024812;28;20107;-66
2022/07/30 03:22:34;;;;;;;3.45;1.80;;;12.50;99.90;;;;;;5003355;28;20103;-64
2022/07/30 03:25:02;;;;;;;3.72;2.20;;;12.50;99.90;;;;;;5020819;28;20053;-66
2022/07/30 03:27:30;;;;;;;2.10;1.90;;;12.50;99.90;;;;;;5007298;28;20347;-64
2022/07/30 03:30:01;;;;;;;2.05;1.90;;;12.50;99.90;;;;;;5009202;28;20060;-64
2022/07/30 03:32:29;;;;;;;5.57;2.13;;;12.50;99.90;;;;;;5014218;28;20045;-68
2022/07/30 03:34:58;;;;;;;3.30;2.30;;;12.50;99.90;;;;;;5006850;28;20068;-65
2022/07/30 03:37:35;;;;;;;1.50;1.40;;;12.50;99.90;;;;;;5002440;28;20103;-68
2022/07/30 03:40:04;;;;;;;1.70;1.60;;;12.50;99.90;;;;;;5005253;28;20054;-65
2022/07/30 03:42:33;;;;;;;2.05;1.95;;;12.50;99.90;;;;;;5006322;28;20037;-67
2022/07/30 03:45:03;;;;;;;2.28;2.03;;;12.50;99.90;;;;;;5009362;28;20613;-68
2022/07/30 03:47:32;;;;;;;1.98;1.50;;;12.50;99.90;;;;;;4994561;28;20042;-69
2022/07/30 03:50:00;;;;;;;2.00;1.67;;;12.60;99.90;;;;;;5007997;28;20604;-66
2022/07/30 03:52:33;;;;;;;3.30;2.30;;;12.60;99.90;;;;;;5008932;28;20100;-65
2022/07/30 03:55:02;;;;;;;1.65;1.55;;;12.60;99.90;;;;;;5022123;28;20041;-68
2022/07/30 03:58:02;;;;;;;5.18;2.03;;;12.70;99.90;;;;;;4955648;28;20044;-66
2022/07/30 04:00:31;;;;;;;3.75;2.25;;;12.70;99.90;;;;;;5017684;28;20436;-64
2022/07/30 04:02:58;;;;;;;2.08;1.75;;;12.80;99.90;;;;;;5006373;28;20103;-64
2022/07/30 04:05:29;;;;;;;2.35;2.15;;;12.80;99.90;;;;;;5002886;28;20069;-67
2022/07/30 04:08:08;;;;;;;2.03;1.90;;;12.80;99.90;;;;;;5005267;28;20979;-66
2022/07/30 04:10:35;;;;;;;2.22;1.70;;;12.90;99.90;;;;;;5020347;28;20132;-65
2022/07/30 04:13:20;;;;;;;5.28;2.45;;;13.00;99.90;;;;;;5022190;28;20064;-65
2022/07/30 04:16:35;;;;;;;2.42;2.22;;;13.00;99.90;;;;;;5020685;28;20040;-73
2022/07/30 04:19:17;;;;;;;5.15;1.98;;;13.10;99.90;;;;;;4941699;28;20119;-65
2022/07/30 04:21:46;;;;;;;2.08;1.30;;;13.20;99.90;;;;;;4943438;28;20065;-65
2022/07/30 04:24:16;;;;;;;2.97;1.75;;;13.20;99.90;;;;;;4985075;28;20200;-65
2022/07/30 04:26:44;;;;;;;;;;;13.30;99.90;;;;;;5015370;28;20051;-65
2022/07/30 04:29:12;;;;;;;1.92;1.83;;;13.40;99.90;;;;;;5022166;28;19984;-71
2022/07/30 04:31:45;;;;;;;2.70;2.17;;;13.50;99.90;;;;;;5012147;28;20150;-67
2022/07/30 04:34:52;;;;;;;3.17;2.22;;;13.60;99.90;;;;;;4999300;28;21514;-65
2022/07/30 04:37:37;;;;;;;2.88;2.38;;;13.70;99.90;;;;;;5023242;28;20471;-75
2022/07/30 04:40:05;;;;;;;3.05;2.25;;;13.80;99.90;;;;;;5025894;28;20057;-67
2022/07/30 04:42:31;;;;;;;1.98;1.77;;;13.90;99.90;;;;;;5009330;28;20731;-65
2022/07/30 04:45:08;;;;;;;3.10;2.78;;;14.00;99.90;;;;;;5014884;28;20053;-65
2022/07/30 04:47:54;;;;;;;3.20;2.05;;;14.20;99.90;;;;;;5036993;28;20045;-75
2022/07/30 04:50:43;;;;;;;3.05;2.72;;;14.30;99.90;;;;;;5046983;28;20196;-66
2022/07/30 04:53:13;;;;;;;5.55;2.00;;;14.40;99.90;;;;;;5022940;28;20131;-71
2022/07/30 04:55:48;;;;;;;2.55;1.85;;;14.50;99.90;;;;;;5021297;28;20060;-66
2022/07/30 04:58:18;;;;;;;4.05;2.30;;;14.60;99.90;;;;;;5040638;28;20112;-64
2022/07/30 05:00:47;;;;;;;1.80;1.70;;;14.80;99.90;;;;;;5039827;28;20408;-66
2022/07/30 05:03:16;;;;;;;1.85;1.75;;;14.90;99.90;;;;;;5022187;28;20111;-64
2022/07/30 05:05:54;;;;;;;2.25;2.15;;;15.10;99.90;;;;;;5023756;28;20045;-64
2022/07/30 05:08:25;;;;;;;6.00;2.47;;;15.20;99.90;;;;;;5026222;28;20052;-64
2022/07/30 05:10:53;;;;;;;3.78;1.83;;;15.30;99.90;;;;;;5030583;28;20114;-67
2022/07/30 05:13:20;;;;;;;3.42;2.08;;;15.40;99.90;;;;;;5038034;28;20049;-66
2022/07/30 05:15:54;;;;;;;1.83;1.73;;;15.50;99.90;;;;;;5034206;28;20075;-69
2022/07/30 05:18:22;;;;;;;2.45;1.45;;;15.60;99.90;;;;;;5029895;28;20144;-71
2022/07/30 05:20:49;;;;;;;2.08;1.92;;;15.70;99.90;;;;;;5031375;28;20048;-74
2022/07/30 05:23:19;;;;;;;1.98;1.73;;;15.70;99.90;;;;;;5040336;28;20136;-65
2022/07/30 05:25:56;;;;;;;1.98;1.30;;;15.90;99.90;;;;;;5034591;28;20068;-73
2022/07/30 05:28:30;;;;;;;1.20;1.10;;;16.00;99.90;;;;;;5025155;28;20041;-64
2022/07/30 05:31:00;;;;;;;3.33;1.40;;;16.10;99.90;;;;;;5041715;28;20045;-71
2022/07/30 05:33:35;;;;;;;1.92;1.38;;;16.30;99.90;;;;;;5030052;28;20033;-64
2022/07/30 05:36:11;;;;;;;2.25;1.17;;;16.40;99.90;;;;;;5026348;28;20038;-64
2022/07/30 05:38:39;;;;;;;1.33;1.23;;;16.40;99.90;;;;;;5045952;28;20159;-65
2022/07/30 05:41:26;;;;;;;0.73;0.73;;;16.40;99.90;;;;;;5039878;28;20159;-70
2022/07/30 05:44:18;;;;;;;3.35;1.30;;;16.50;99.90;;;;;;5045210;28;20159;-65
2022/07/30 05:46:50;;;;;;;1.63;0.95;;;16.60;99.90;;;;;;5029038;28;20060;-68
2022/07/30 05:49:18;;;;;;;0.77;0.77;;;16.60;99.90;;;;;;5038135;28;20045;-64
2022/07/30 05:51:45;;;;;;;2.22;0.65;;;16.70;99.90;;;;;;5029626;28;20419;-67
2022/07/30 05:54:12;;;;;;;1.70;0.77;;;16.80;99.90;;;;;;5043052;28;20136;-66
2022/07/30 05:56:41;;;;;;;1.42;0.70;;;16.90;99.90;;;;;;5046026;28;20947;-74
2022/07/30 05:59:12;;;;;;;1.35;0.40;;;16.90;99.90;;;;;;5042830;28;20119;-69
2022/07/30 06:02:03;;;;;;;1.95;0.52;;;17.00;99.90;;;;;;5030232;28;20041;-65
2022/07/30 06:04:46;;;;;;;0.50;0.50;;;17.00;99.90;;;;;;5028535;28;21319;-66
2022/07/30 06:07:14;;;;;;;0.93;0.68;;;17.10;99.90;;;;;;5017517;28;20448;-66
2022/07/30 06:09:41;;;;;;;0.88;0.50;;;17.10;99.90;;;;;;5024157;28;20063;-67
2022/07/30 06:12:09;;;;;;;0.60;0.47;;;17.20;99.90;;;;;;5031057;28;20509;-64
2022/07/30 06:14:36;;;;;;;0.73;0.70;;;17.20;99.90;;;;;;5036503;28;20172;-64
2022/07/30 06:17:05;;;;;;;0.65;0.40;;;17.30;99.90;;;;;;5007761;28;20045;-70
2022/07/30 06:19:55;;;;;;;0.50;0.50;;;17.30;99.90;;;;;;5015558;28;20049;-70
2022/07/30 06:22:23;;;;;;;0.60;0.60;;;17.30;99.90;;;;;;5008165;28;20132;-67
2022/07/30 06:24:53;;;;;;;0.82;0.60;;;17.40;99.90;;;;;;5024917;28;20053;-65
2022/07/30 06:27:26;;;;;;;0.43;0.43;;;17.50;99.90;;;;;;5019833;28;20096;-64
2022/07/30 06:30:08;;;;;;;1.20;0.77;;;17.60;99.90;;;;;;5008681;28;20053;-68
2022/07/30 06:32:35;;;;;;;1.20;0.80;;;17.60;99.90;;;;;;5005239;28;20046;-64
2022/07/30 06:35:03;;;;;;;0.80;0.65;;;17.70;99.90;;;;;;5011316;28;20088;-65
2022/07/30 06:37:31;;;;;;;1.10;0.85;;;17.70;99.90;;;;;;5007501;28;20057;-65
2022/07/30 06:40:20;;;;;;;3.00;0.50;;;17.80;99.90;;;;;;5010167;28;20476;-68
2022/07/30 06:43:04;;;;;;;1.23;0.45;;;17.70;99.90;;;;;;5011452;28;20467;-67
2022/07/30 06:45:46;;;;;;;1.33;0.40;;;17.80;99.90;;;;;;5003644;28;20050;-70
2022/07/30 06:48:20;;;;;;;1.80;0.45;;;17.70;99.90;;;;;;5011329;28;20120;-67
2022/07/30 06:50:47;;;;;;;0.70;0.70;;;17.80;99.90;;;;;;5020824;28;20129;-68
2022/07/30 06:53:14;;;;;;;0.55;0.40;;;17.90;99.90;;;;;;5010939;28;20052;-65
2022/07/30 06:56:01;;;;;;;1.67;0.50;;;17.90;99.90;;;;;;4985189;28;20045;-67
2022/07/30 06:58:38;;;;;;;4.47;0.63;;;17.90;99.90;;;;;;5008386;28;20055;-71
2022/07/30 07:01:25;;;;;;;0.77;0.45;;;18.00;99.90;;;;;;5020397;28;20120;-72
2022/07/30 07:03:56;;;;;;;1.17;0.75;;;18.00;99.90;;;;;;5007398;28;20124;-64
2022/07/30 07:06:23;;;;;;;3.78;0.70;;;18.10;99.90;;;;;;5014516;28;20125;-76
2022/07/30 07:08:49;;;;;;;0.40;0.40;;;18.10;99.90;;;;;;5021533;28;20148;-69
2022/07/30 07:11:27;;;;;;;2.92;0.80;;;18.10;99.90;;;;;;5020683;28;20640;-68
2022/07/30 07:13:56;;;;;;;2.58;0.68;;;18.20;99.90;;;;;;5009000;28;20050;-64
2022/07/30 07:16:32;;;;;;;0.68;0.68;;;18.30;99.90;;;;;;5021988;28;20045;-66
2022/07/30 07:19:10;;;;;;;0.73;0.73;;;18.40;99.90;;;;;;5025921;28;20143;-65
2022/07/30 07:21:59;;;;;;;1.48;1.13;;;18.40;99.90;;;;;;5023898;28;20095;-65
2022/07/30 07:24:26;;;;;;;0.95;0.60;;;18.50;99.90;;;;;;5003164;28;20052;-64
2022/07/30 07:26:56;;;;;;;;;;;18.40;99.90;;;;;;5002587;28;20041;-64
2022/07/30 07:29:25;;;;;;;2.10;0.43;;;18.40;99.90;;;;;;5022042;28;19992;-65
2022/07/30 07:31:52;;;;;;;1.50;0.93;;;18.30;99.90;;;;;;5018621;28;20404;-71
2022/07/30 07:34:34;;;;;;;2.38;0.95;;;18.40;99.90;;;;;;5024005;28;20864;-67
2022/07/30 07:37:01;;;;;;;0.57;0.40;;;18.40;99.90;;;;;;5025313;28;20045;-67
2022/07/30 07:39:28;;;;;;;0.30;0.30;;;18.40;99.90;;;;;;5024081;28;20060;-71
2022/07/30 07:41:56;;;;;;;0.68;0.57;;;18.50;99.90;;;;;;5047284;28;20117;-65
2022/07/30 07:44:25;;;;;;;1.55;0.45;;;18.60;99.90;;;;;;5024822;28;20089;-65
2022/07/30 07:46:51;;;;;;;0.65;0.65;;;18.60;99.90;;;;;;5046035;28;20045;-66
2022/07/30 07:49:19;;;;;;;0.40;0.30;;;18.60;99.90;;;;;;5025796;28;20144;-65
2022/07/30 07:51:49;;;;;;;1.25;0.80;;;18.60;99.90;;;;;;5026167;28;20127;-70
2022/07/30 07:54:18;;;;;;;1.17;0.43;;;18.60;99.90;;;;;;5027299;28;20359;-65
2022/07/30 07:56:50;;;;;;;1.25;0.80;;;18.70;99.90;;;;;;5026256;28;20051;-68
2022/07/30 07:59:23;;;;;;;1.02;0.45;;;18.70;99.90;;;;;;5038896;28;20049;-66
2022/07/30 08:02:03;;;;;;;1.13;0.50;;;18.80;99.90;;;;;;5027080;28;20451;-68
2022/07/30 08:04:59;;;;;;;1.67;1.52;;;18.90;99.90;;;;;;5025324;28;20037;-65
2022/07/30 08:07:49;;;;;;;2.50;1.10;;;18.90;99.90;;;;;;5023221;28;20053;-68
2022/07/30 08:10:35;;;;;;;1.05;0.55;;;19.00;99.90;;;;;;5038680;28;20183;-65
2022/07/30 08:13:20;;;;;;;0.55;0.55;;;18.90;99.90;;;;;;5021917;28;20618;-69
2022/07/30 08:16:25;;;;;;;0.93;0.88;;;18.90;99.90;;;;;;5038819;28;20098;-64
2022/07/30 08:19:11;;;;;;;1.35;1.25;;;19.00;99.90;;;;;;5040048;28;20127;-71
2022/07/30 08:21:52;;;;;;;0.45;0.45;;;19.10;99.90;;;;;;5023490;28;20083;-64
2022/07/30 08:24:19;;;;;;;0.70;0.70;;;19.10;99.90;;;;;;5027754;28;20466;-65
2022/07/30 08:26:46;;;;;;;1.45;0.90;;;19.10;99.90;;;;;;5045805;28;20400;-66
2022/07/30 08:29:13;;;;;;;3.35;0.93;;;19.10;99.90;;;;;;5037119;28;20483;-70
2022/07/30 08:31:43;;;;;;;1.15;0.70;;;19.20;99.90;;;;;;5024738;28;20110;-70
2022/07/30 08:34:12;;;;;;;1.33;0.70;;;19.20;99.90;;;;;;5018763;28;20041;-67
2022/07/30 08:36:39;;;;;;;0.80;0.80;;;19.30;99.90;;;;;;5024678;28;20124;-64
2022/07/30 08:39:06;;;;;;;1.10;0.68;;;19.30;99.90;;;;;;5022986;28;20067;-64
2022/07/30 08:41:35;;;;;;;1.15;0.52;;;19.30;99.90;;;;;;5032883;28;20790;-64
2022/07/30 08:44:03;;;;;;;0.57;0.57;;;19.40;99.90;;;;;;5016268;28;20041;-69
2022/07/30 08:46:39;;;;;;;1.17;0.85;;;19.50;99.90;;;;;;5033948;28;20550;-72
2022/07/30 08:49:24;;;;;;;5.18;1.77;;;19.40;99.90;;;;;;5027610;28;20049;-65
2022/07/30 08:51:52;;;;;;;0.65;0.65;;;19.60;99.90;;;;;;5039646;28;20106;-65
2022/07/30 08:54:34;;;;;;;0.95;0.57;;;19.60;99.90;;;;;;5031080;28;20099;-64
2022/07/30 08:57:02;;;;;;;0.90;0.80;;;19.40;99.90;;;;;;5047375;28;20061;-70
2022/07/30 08:59:31;;;;;;;1.45;0.70;;;19.50;99.90;;;;;;5029023;28;20698;-65
2022/07/30 09:02:18;;;;;;;1.45;0.82;;;19.50;99.90;;;;;;5041831;28;20422;-69
2022/07/30 09:05:11;;;;;;;0.52;0.50;;;19.70;99.90;;;;;;5029063;28;20151;-64
2022/07/30 09:07:39;;;;;;;1.17;0.90;;;19.60;99.90;;;;;;5027285;28;20115;-66
2022/07/30 09:10:11;;;;;;;0.88;0.82;;;19.50;99.90;;;;;;5024642;28;20147;-64
2022/07/30 09:12:43;;;;;;;1.20;1.10;;;19.60;99.90;;;;;;5043408;28;20045;-65
2022/07/30 09:15:15;;;;;;;1.30;0.70;;;19.70;99.90;;;;;;5047636;28;20053;-64
2022/07/30 09:17:47;;;;;;;0.70;0.52;;;19.70;99.90;;;;;;5053741;28;20049;-67
2022/07/30 09:20:14;;;;;;;0.60;0.45;;;19.80;99.90;;;;;;5038729;28;20049;-67
2022/07/30 09:22:46;;;;;;;0.60;0.40;;;19.70;99.90;;;;;;5048243;28;20044;-64
2022/07/30 09:25:44;;;;;;;1.88;0.70;;;19.70;99.90;;;;;;5040289;28;20140;-68
2022/07/30 09:28:52;;;;;;;0.77;0.70;;;19.70;99.90;;;;;;4977249;28;20071;-65
2022/07/30 09:32:11;;;;;;;0.88;0.88;;;19.70;99.90;;;;;;4980745;28;20041;-65
2022/07/30 09:35:11;;;;;;;1.27;0.50;;;19.80;99.90;;;;;;5036090;28;20079;-68
2022/07/30 09:37:59;;;;;;;2.40;0.50;;;19.80;99.90;;;;;;5042396;28;20497;-64
2022/07/30 09:40:55;;;;;;;2.47;0.85;;;19.70;99.90;;;;;;5032101;28;21194;-66
2022/07/30 09:43:49;;;;;;;1.95;0.60;;;19.80;99.90;;;;;;5038372;28;20044;-69
2022/07/30 09:46:50;;;;;;;0.47;0.47;;;20.00;99.90;;;;;;5012215;28;20042;-67
2022/07/30 09:49:40;;;;;;;0.50;0.50;;;20.00;99.90;;;;;;5033375;28;20049;-74
2022/07/30 09:52:27;;;;;;;0.30;0.30;;;19.90;99.90;;;;;;5038980;28;20491;-64
2022/07/30 09:54:55;;;;;;;0.63;0.50;;;20.00;99.90;;;;;;5027667;28;20040;-71
2022/07/30 09:57:26;;;;;;;0.55;0.55;;;20.10;99.90;;;;;;5022009;28;20038;-65
2022/07/30 10:00:21;;;;;;;0.50;0.50;;;20.10;99.90;;;;;;5028464;28;20047;-72
2022/07/30 10:03:18;;;;;;;1.40;0.52;;;20.20;99.90;;;;;;5023456;28;20065;-65
2022/07/30 10:06:17;;;;;;;0.50;0.40;;;20.30;99.90;;;;;;5036368;28;20048;-64
2022/07/30 10:08:51;;;;;;;2.35;0.50;;;20.30;99.90;;;;;;5014962;28;20063;-65
2022/07/30 10:11:24;;;;;;;0.70;0.40;;;20.20;99.90;;;;;;5034113;28;20632;-70
2022/07/30 10:14:00;;;;;;;0.67;0.67;;;20.30;99.90;;;;;;5038485;28;20475;-66
2022/07/30 10:16:29;;;;;;;0.57;0.43;;;20.20;99.90;;;;;;5009836;28;20056;-68
2022/07/30 10:18:59;;;;;;;0.50;0.32;;;20.20;99.90;;;;;;5009029;28;20047;-68
2022/07/30 10:21:44;;;;;;;1.27;0.40;;;20.50;99.90;;;;;;5021590;28;20056;-65
2022/07/30 10:24:15;;;;;;;1.02;0.88;;;20.40;99.90;;;;;;5023092;28;20049;-68
2022/07/30 10:27:12;;;;;;;2.78;0.73;;;20.30;99.90;;;;;;5018689;28;20049;-65
2022/07/30 10:30:02;;;;;;;2.35;0.47;;;20.40;99.90;;;;;;5011649;28;20049;-65
2022/07/30 10:32:32;;;;;;;1.55;0.60;;;20.50;99.90;;;;;;5023889;28;20483;-68
2022/07/30 10:34:59;;;;;;;0.30;0.30;;;20.30;99.90;;;;;;5022092;28;20086;-66
2022/07/30 10:37:29;;;;;;;0.65;0.63;;;20.30;99.90;;;;;;5018697;28;20041;-74
2022/07/30 10:40:09;;;;;;;0.60;0.60;;;20.40;99.90;;;;;;5020034;28;20053;-64
2022/07/30 10:42:37;;;;;;;0.70;0.30;;;20.70;99.90;;;;;;5025146;28;20045;-65
2022/07/30 10:45:22;;;;;;;0.30;0.20;;;20.60;99.90;;;;;;5018931;28;21267;-64
2022/07/30 10:47:50;;;;;;;0.63;0.63;;;20.50;99.90;;;;;;5019068;28;20037;-65
2022/07/30 10:50:21;;;;;;;0.63;0.60;;;20.60;99.90;;;;;;5020444;28;20735;-65
2022/07/30 10:52:51;;;;;;;0.95;0.45;;;20.70;99.90;;;;;;5017396;28;20481;-67
2022/07/30 10:55:24;;;;;;;0.82;0.30;;;20.60;99.90;;;;;;5020851;28;20502;-66
2022/07/30 10:58:07;;;;;;;0.68;0.68;;;20.60;99.90;;;;;;5022314;28;20057;-69
2022/07/30 11:00:57;;;;;;;0.55;0.32;;;20.80;99.90;;;;;;5018447;28;20121;-65
2022/07/30 11:03:25;;;;;;;1.45;0.43;;;20.90;99.90;;;;;;5020644;28;20088;-65
2022/07/30 11:06:13;;;;;;;3.67;0.57;;;20.90;99.90;;;;;;5021881;28;20049;-69
2022/07/30 11:08:43;;;;;;;0.90;0.43;;;20.90;99.90;;;;;;5018333;28;20081;-67
2022/07/30 11:11:19;;;;;;;0.68;0.52;;;20.80;99.90;;;;;;5020379;28;20060;-65
2022/07/30 11:14:07;;;;;;;0.40;0.40;;;20.90;99.90;;;;;;5020377;28;20041;-65
2022/07/30 11:16:33;;;;;;;2.15;0.40;;;21.00;99.90;;;;;;5034274;28;20049;-69
2022/07/30 11:19:18;;;;;;;0.55;0.30;;;20.80;99.90;;;;;;5040141;28;20129;-69
2022/07/30 11:22:27;;;;;;;1.38;0.52;;;20.60;99.90;;;;;;5040080;28;20128;-71
2022/07/30 11:24:55;;;;;;;2.33;0.68;;;20.40;99.90;;;;;;5036916;28;20037;-65
2022/07/30 11:27:45;;;;;;;0.98;0.50;;;20.50;99.90;;;;;;5036798;28;20433;-72
2022/07/30 11:30:19;;;;;;;0.47;0.20;;;20.90;99.90;;;;;;5036179;28;20110;-67
2022/07/30 11:32:51;;;;;;;1.50;0.50;;;20.70;99.90;;;;;;5040842;28;20106;-66
2022/07/30 11:35:25;;;;;;;0.70;0.52;;;21.00;99.90;;;;;;5038350;28;20162;-66
2022/07/30 11:38:06;;;;;;;0.35;0.28;;;21.00;99.90;;;;;;5030329;28;20049;-67
2022/07/30 11:40:55;;;;;;;0.60;0.45;;;20.90;99.90;;;;;;5041850;28;20495;-66
2022/07/30 11:43:34;;;;;;;0.93;0.43;;;21.00;99.90;;;;;;5036078;28;20056;-67
2022/07/30 11:46:07;;;;;;;;;;;20.90;99.90;;;;;;5040087;28;20064;-71
2022/07/30 11:48:41;;;;;;;0.32;0.32;;;21.00;99.90;;;;;;5040258;28;20393;-67
2022/07/30 11:51:09;;;;;;;1.33;1.23;;;21.10;99.90;;;;;;5034480;28;20086;-68
2022/07/30 11:53:36;;;;;;;1.05;0.52;;;21.10;99.90;;;;;;5041859;28;20061;-70
2022/07/30 11:56:03;;;;;;;0.57;0.35;;;21.10;99.90;;;;;;5042322;28;20140;-66
2022/07/30 11:58:38;;;;;;;0.50;0.32;;;21.00;99.90;;;;;;5038990;28;20115;-65
2022/07/30 12:01:12;;;;;;;0.20;0.20;;;21.10;99.90;;;;;;5039716;28;20071;-65
2022/07/30 12:03:44;;;;;;;0.77;0.30;;;21.20;99.90;;;;;;5045086;28;20565;-67
2022/07/30 12:06:20;;;;;;;0.30;0.30;;;21.40;99.90;;;;;;5044680;28;20223;-64
2022/07/30 12:08:49;;;;;;;0.20;0.20;;;21.30;99.90;;;;;;5046669;28;20033;-66
2022/07/30 12:11:22;;;;;;;0.68;0.68;;;21.20;99.90;;;;;;5038440;28;20037;-67
2022/07/30 12:13:58;;;;;;;0.50;0.40;;;20.90;99.90;;;;;;5043288;28;20099;-66
2022/07/30 12:16:26;;;;;;;0.65;0.40;;;20.80;99.90;;;;;;5037704;28;20051;-70
2022/07/30 12:18:54;;;;;;;0.40;0.40;;;20.80;99.90;;;;;;5023348;28;20220;-69
2022/07/30 12:21:23;;;;;;;0.30;0.20;;;20.70;99.90;;;;;;5025000;28;20101;-65
2022/07/30 12:23:55;;;;;;;2.72;0.40;;;20.70;99.90;;;;;;5029116;28;20146;-67
2022/07/30 12:26:28;;;;;;;2.65;0.70;;;20.90;99.90;;;;;;5022172;28;20474;-70
2022/07/30 12:29:03;;;;;;;1.98;0.40;;;21.10;99.90;;;;;;5024724;28;20353;-64
2022/07/30 12:31:32;;;;;;;0.68;0.40;;;21.30;99.90;;;;;;5024498;28;20380;-71
2022/07/30 12:33:59;;;;;;;0.28;0.25;;;21.40;99.90;;;;;;5026154;28;20143;-68
2022/07/30 12:36:30;;;;;;;0.73;0.73;;;21.60;99.90;;;;;;5025804;28;20041;-70
2022/07/30 12:38:59;;;;;;;2.20;0.45;;;21.70;99.90;;;;;;5028288;28;20096;-69
2022/07/30 12:41:42;;;;;;;0.73;0.65;;;21.40;99.90;;;;;;5025436;28;20160;-73
2022/07/30 12:44:09;;;;;;;0.47;0.38;;;21.30;99.90;;;;;;5025363;28;20045;-72
2022/07/30 12:46:39;;;;;;;0.60;0.38;;;21.20;99.90;;;;;;5029051;28;20141;-65
2022/07/30 12:49:07;;;;;;;0.75;0.57;;;21.40;99.90;;;;;;5024041;28;20124;-64
2022/07/30 12:51:52;;;;;;;0.50;0.25;;;21.50;99.90;;;;;;5022276;28;20056;-65
2022/07/30 12:54:27;;;;;;;0.30;0.30;;;21.50;99.90;;;;;;5028978;28;20040;-65
2022/07/30 12:56:59;;;;;;;0.30;0.30;;;21.30;99.90;;;;;;5024228;28;20037;-70
2022/07/30 12:59:29;;;;;;;0.52;0.22;;;21.20;99.90;;;;;;5024192;28;20705;-64
2022/07/30 13:01:58;;;;;;;0.82;0.20;;;21.00;99.90;;;;;;5023452;28;20068;-76
2022/07/30 13:04:26;;;;;;;0.25;0.20;;;20.80;99.90;;;;;;5027426;28;20038;-69
2022/07/30 13:07:07;;;;;;;0.63;0.30;;;20.60;99.90;;;;;;5028694;28;20146;-65
2022/07/30 13:09:34;;;;;;;1.25;0.43;;;20.40;99.90;;;;;;5023568;28;20142;-68
2022/07/30 13:12:01;;;;;;;0.75;0.63;;;20.40;99.90;;;;;;5026137;28;20077;-72
2022/07/30 13:14:29;;;;;;;0.63;0.30;;;20.50;99.90;;;;;;5021665;28;20411;-76
2022/07/30 13:16:57;;;;;;;0.63;0.35;;;20.50;99.90;;;;;;5046398;28;20049;-65
2022/07/30 13:19:25;;;;;;;0.57;0.52;;;20.50;99.90;;;;;;5040243;28;20057;-65
2022/07/30 13:21:52;;;;;;;0.30;0.17;;;20.40;99.90;;;;;;5044088;28;20045;-65
2022/07/30 13:24:19;;;;;;;0.40;0.40;;;20.50;99.90;;;;;;5044788;28;20057;-64
2022/07/30 13:26:47;;;;;;;0.57;0.32;;;20.70;99.90;;;;;;5045875;28;20322;-75